Skip Navigation Links
NOAA logo - Click to go to the NOAA homepage
NOAA's National Weather Service
Alaska Aviation Weather Unit
  NWS logo - Click to go to the NWS homepage
Left Navbar Graphic     21 AKDT = 05 GMT

   
NOAA is celebrating 200 years of science, service, and stewardship. Visit the NOAA 200th celebration Web site to learn more.
USA.gov is the U.S. Government's official Web portal to all Federal, state and local government Web resources and services.
Facebook
NWS on Facebook

Important Change Regarding the AAWU Web Presence

 

Over the last several months, the AAWU has been working to navigate its webpages to a nationally supported server. Security, as well as other needs, have necessitated the change.  In the process, we have made an effort to enhance the functionality of our website, as well as some of our products. As of June 27, 2017, aawu.arh.noaa.gov will be discontinued. The new AAWU web address is weather.gov/aawu. It is now live and will run in-parallel with the old site until it is discontinued. Please send any feedback or questions regarding the new webpages to nws.ar.aawu.webauthors@noaa.gov.  Thank you for your patience during this time of transition.
AAWU Home :: Display TAF Add Bookmark
METAR PANT 252353Z AUTO 15007KT 10SM OVC047 14/09 A3002 RMK AO2 SLP165
     60000 T01440089 10150 20133 58002 TSNO PNO $=

METAR PANT 260053Z AUTO 16006KT 10SM OVC050 14/09 A3001 RMK AO2 SLP163
     T01390089 TSNO PNO $=

METAR PANT 260153Z AUTO 20004KT 10SM SCT015 OVC050 14/09 A3000 RMK AO2
     SLP160 T01390089 TSNO PNO $=

METAR PANT 260253Z AUTO 15004KT 10SM BKN033 OVC050 14/08 A3000 RMK AO2
     SLP159 T01390083 56006 TSNO PNO $=

METAR PANT 260353Z AUTO VRB04KT 10SM SCT020 BKN025 OVC048 12/08 A3000
     RMK AO2 SLP158 T01220078 TSNO PNO $=

METAR PANT 260453Z AUTO VRB03KT 10SM -RA FEW005 OVC025 11/09 A2999 RMK
     AO2 RAB03 SLP157 P0001 T01110089 TSNO $=

PANT 260513Z AUTO 00000KT 10SM -RA FEW005 BKN013 OVC023 11/09
A2999=


NOAA's National Weather Service
Alaska Aviation Weather Unit
6930 Sand Lake Road
Anchorage, AK 99502-1845
Disclaimer
Credits
Glossary
Privacy Policy
About Us
Career Opportunities
Contact AAWU Internet Services Site last modified: April, 17th 2012